Time;durP1;ratioP1;P1;durP2;ratioP2;P2;SDS_P1;SDS_P2;PMS_P1;PMS_P2;Temp;Humidity;BMP_temperature;BMP_pressure;BME280_temperature;BME280_humidity;BME280_pressure;Samples;Min_cycle;Max_cycle;Signal;HPM_P1;HPM_P2
2022/12/15 00:39:07;;;;;;;7.18;2.80;;;;;;;;;;5031278;28;20048;-61
2022/12/15 00:41:36;;;;;;;4.90;2.90;;;;;;;;;;5031325;28;20045;-62
2022/12/15 00:44:06;;;;;;;8.27;2.92;;;;;;;;;;5031242;28;20049;-61
2022/12/15 00:46:54;;;;;;;6.78;2.72;;;;;;;;;;4996245;28;20409;-61
2022/12/15 01:20:25;;;;;;;7.38;3.03;;;;;;;;;;5011971;28;20167;-62
2022/12/15 01:22:56;;;;;;;6.72;2.88;;;;;;;;;;5028576;28;20409;-61
2022/12/15 01:25:26;;;;;;;8.45;3.10;;;;;;;;;;4995560;28;20061;-62
2022/12/15 01:27:56;;;;;;;8.50;2.97;;;;;;;;;;5061509;28;20057;-62
2022/12/15 01:30:26;;;;;;;8.52;3.05;;;;;;;;;;5067666;28;20053;-62
2022/12/15 01:32:56;;;;;;;9.25;3.30;;;;;;;;;;5068060;28;20079;-62
2022/12/15 01:35:26;;;;;;;7.50;3.55;;;;;;;;;;5017737;28;20071;-62
2022/12/15 01:37:56;;;;;;;6.07;2.92;;;;;;;;;;5067802;28;20059;-61
2022/12/15 01:40:44;;;;;;;7.97;3.00;;;;;;;;;;5067702;28;20048;-62
2022/12/15 01:43:17;;;;;;;8.88;3.22;;;;;;;;;;5067879;28;20083;-62
2022/12/15 01:45:52;;;;;;;10.15;3.08;;;;;;;;;;5068133;28;20044;-63
2022/12/15 01:48:41;;;;;;;10.23;3.42;;;;;;;;;;5011166;28;20065;-62
2022/12/15 01:51:18;;;;;;;10.18;3.63;;;;;;;;;;5007948;28;20053;-62
2022/12/15 01:54:04;;;;;;;5.40;3.05;;;;;;;;;;5008170;28;20058;-62
2022/12/15 01:56:39;;;;;;;10.50;3.60;;;;;;;;;;4991510;28;20065;-62
2022/12/15 01:59:15;;;;;;;6.80;3.30;;;;;;;;;;5007829;28;20053;-61
2022/12/15 02:01:45;;;;;;;9.68;3.85;;;;;;;;;;4929752;28;20093;-61
2022/12/15 02:04:21;;;;;;;9.77;3.20;;;;;;;;;;5008160;28;20053;-61
2022/12/15 02:06:51;;;;;;;8.43;3.45;;;;;;;;;;4991087;28;20506;-62
2022/12/15 02:09:23;;;;;;;9.88;3.78;;;;;;;;;;4988384;28;20565;-61
2022/12/15 02:12:28;;;;;;;5.97;2.95;;;;;;;;;;4989868;28;20043;-61
2022/12/15 02:15:28;;;;;;;9.15;3.40;;;;;;;;;;4924835;28;20106;-61
2022/12/15 02:18:31;;;;;;;7.20;3.33;;;;;;;;;;4972202;28;20106;-62
2022/12/15 02:21:19;;;;;;;11.15;3.65;;;;;;;;;;4992066;28;20054;-61
2022/12/15 02:24:22;;;;;;;11.70;4.32;;;;;;;;;;4992111;28;20054;-61
2022/12/15 02:27:01;;;;;;;7.95;2.88;;;;;;;;;;4959463;28;20057;-62
2022/12/15 02:29:55;;;;;;;7.20;2.97;;;;;;;;;;5007101;28;20058;-62
2022/12/15 02:32:33;;;;;;;8.18;3.00;;;;;;;;;;5011591;28;20053;-61
2022/12/15 02:35:09;;;;;;;6.78;3.03;;;;;;;;;;4962787;28;20054;-62
2022/12/15 02:37:40;;;;;;;9.32;3.30;;;;;;;;;;5011320;28;20049;-61
2022/12/15 02:40:11;;;;;;;6.00;2.72;;;;;;;;;;4978710;28;20665;-61
2022/12/15 02:42:46;;;;;;;8.40;4.18;;;;;;;;;;4979167;28;20046;-61
2022/12/15 02:45:39;;;;;;;7.45;3.40;;;;;;;;;;5011392;28;20572;-61
2022/12/15 02:48:27;;;;;;;7.43;3.58;;;;;;;;;;4924535;28;20055;-61
2022/12/15 02:51:10;;;;;;;8.70;3.33;;;;;;;;;;4918837;29;20063;-61
2022/12/15 02:53:55;;;;;;;10.40;4.28;;;;;;;;;;4952897;29;20095;-61
2022/12/15 02:56:48;;;;;;;9.77;3.63;;;;;;;;;;4952495;29;20062;-62
2022/12/15 02:59:44;;;;;;;9.38;3.85;;;;;;;;;;4952608;29;20065;-61
2022/12/15 03:02:15;;;;;;;7.28;3.67;;;;;;;;;;4933139;29;20063;-62
2022/12/15 03:04:45;;;;;;;12.50;3.50;;;;;;;;;;4933314;29;20059;-61
2022/12/15 03:07:15;;;;;;;9.80;4.50;;;;;;;;;;4933342;29;20056;-62
2022/12/15 03:09:45;;;;;;;11.35;3.60;;;;;;;;;;4886152;29;20071;-61
2022/12/15 03:12:16;;;;;;;9.00;3.38;;;;;;;;;;4933054;29;20051;-61
2022/12/15 03:14:46;;;;;;;13.10;3.97;;;;;;;;;;4933179;29;20500;-62
2022/12/15 03:17:15;;;;;;;10.77;4.38;;;;;;;;;;4933012;29;20047;-62
2022/12/15 03:19:45;;;;;;;6.63;3.50;;;;;;;;;;4917226;29;20059;-61
2022/12/15 03:22:17;;;;;;;;;;;;;;;;;;4933376;29;20082;-61
2022/12/15 03:24:47;;;;;;;6.63;3.28;;;;;;;;;;4951726;28;19932;-61
2022/12/15 03:27:17;;;;;;;8.48;2.60;;;;;;;;;;4993876;28;20469;-61
2022/12/15 03:29:46;;;;;;;6.75;3.20;;;;;;;;;;5010481;28;20050;-62
2022/12/15 03:32:16;;;;;;;7.30;3.17;;;;;;;;;;5010496;28;20086;-65
2022/12/15 03:34:46;;;;;;;8.07;3.10;;;;;;;;;;4977715;28;20073;-61
2022/12/15 03:37:16;;;;;;;13.23;3.65;;;;;;;;;;4994459;28;20465;-62
2022/12/15 03:39:46;;;;;;;9.80;3.70;;;;;;;;;;5024868;28;20506;-61
2022/12/15 03:42:47;;;;;;;8.82;3.78;;;;;;;;;;4981190;28;20512;-61
2022/12/15 03:45:07;;;;;;;10.65;3.05;;;;;;;;;;5029720;28;20065;-61
2022/12/15 03:47:41;;;;;;;7.70;2.78;;;;;;;;;;4996884;28;20461;-62
2022/12/15 03:50:14;;;;;;;9.82;3.22;;;;;;;;;;5029561;28;20057;-61
2022/12/15 03:52:44;;;;;;;8.55;2.70;;;;;;;;;;5029953;28;20441;-62
2022/12/15 03:55:13;;;;;;;8.32;4.55;;;;;;;;;;5029523;28;20556;-61
2022/12/15 03:57:43;;;;;;;7.38;3.25;;;;;;;;;;5029238;28;20053;-62
2022/12/15 04:00:14;;;;;;;12.57;3.35;;;;;;;;;;5029387;28;20056;-61
2022/12/15 04:02:45;;;;;;;11.70;3.83;;;;;;;;;;5029529;28;20060;-61
2022/12/15 04:05:32;;;;;;;11.88;2.60;;;;;;;;;;5029467;28;20409;-60
2022/12/15 04:08:02;;;;;;;7.05;3.95;;;;;;;;;;5029862;28;20489;-61
2022/12/15 04:10:34;;;;;;;8.88;3.75;;;;;;;;;;5029096;28;20068;-61
2022/12/15 04:13:08;;;;;;;;;;;;;;;;;;5029764;28;20449;-60
2022/12/15 04:15:39;;;;;;;10.05;3.40;;;;;;;;;;5029574;28;19921;-61
2022/12/15 04:18:10;;;;;;;6.57;3.03;;;;;;;;;;5028857;28;20084;-61
2022/12/15 04:20:40;;;;;;;5.72;3.40;;;;;;;;;;5028777;28;20528;-62
2022/12/15 04:23:10;;;;;;;8.55;3.78;;;;;;;;;;5042675;28;20057;-62
2022/12/15 05:33:20;;;;;;;5.47;2.50;;;;;;;;;;5027667;28;20405;-61
2022/12/15 05:35:49;;;;;;;6.95;2.95;;;;;;;;;;5044371;28;20049;-62
2022/12/15 05:38:19;;;;;;;9.45;3.60;;;;;;;;;;5027657;28;20068;-61
2022/12/15 05:40:48;;;;;;;8.23;3.55;;;;;;;;;;5028018;28;20054;-61
2022/12/15 05:43:18;;;;;;;6.82;3.13;;;;;;;;;;5027555;28;20054;-61
2022/12/15 05:45:54;;;;;;;8.38;3.72;;;;;;;;;;5012537;28;20053;-61
2022/12/15 05:48:26;;;;;;;8.48;3.28;;;;;;;;;;4983225;28;20057;-61
2022/12/15 05:50:57;;;;;;;;;;;;;;;;;;5032269;28;20057;-61
2022/12/15 05:53:28;;;;;;;6.57;3.17;;;;;;;;;;5031824;28;19921;-61
2022/12/15 05:56:02;;;;;;;9.13;3.33;;;;;;;;;;4982338;28;20065;-61
2022/12/15 05:58:32;;;;;;;7.50;3.03;;;;;;;;;;4998597;28;20045;-61
2022/12/15 06:01:14;;;;;;;5.65;3.10;;;;;;;;;;4998750;28;20049;-61
2022/12/15 06:03:45;;;;;;;;;;;;;;;;;;5032241;28;20440;-61
2022/12/15 06:06:15;;;;;;;7.10;3.20;;;;;;;;;;5031651;28;19921;-62
2022/12/15 06:08:44;;;;;;;5.88;3.38;;;;;;;;;;5031888;28;20066;-62
2022/12/15 06:11:19;;;;;;;8.05;3.42;;;;;;;;;;4999103;28;20689;-62
2022/12/15 06:13:49;;;;;;;7.65;3.53;;;;;;;;;;5008399;28;20525;-61
2022/12/15 06:16:21;;;;;;;8.75;3.75;;;;;;;;;;5011540;28;20060;-62
2022/12/15 06:18:57;;;;;;;7.30;3.25;;;;;;;;;;4995192;28;20049;-61
2022/12/15 06:21:31;;;;;;;7.93;2.97;;;;;;;;;;4979200;28;20549;-62
2022/12/15 06:24:04;;;;;;;7.25;3.20;;;;;;;;;;5012194;28;20058;-61
2022/12/15 06:26:36;;;;;;;8.00;2.95;;;;;;;;;;5011613;28;20054;-61
2022/12/15 06:29:07;;;;;;;;;;;;;;;;;;4980059;28;20057;-62
2022/12/15 06:31:38;;;;;;;10.13;3.05;;;;;;;;;;5011365;28;19922;-62
2022/12/15 06:34:12;;;;;;;7.45;3.28;;;;;;;;;;5011763;28;20065;-62
2022/12/15 06:36:43;;;;;;;7.03;3.47;;;;;;;;;;4994703;28;20073;-62
2022/12/15 06:39:14;;;;;;;9.07;3.03;;;;;;;;;;5011262;28;20049;-62
2022/12/15 06:41:45;;;;;;;10.27;3.10;;;;;;;;;;5011112;28;20062;-61
2022/12/15 06:44:16;;;;;;;5.70;2.70;;;;;;;;;;4995479;28;20053;-61
2022/12/15 06:46:46;;;;;;;4.93;2.25;;;;;;;;;;5011184;28;20418;-61
2022/12/15 06:49:15;;;;;;;8.20;2.70;;;;;;;;;;5024494;28;20065;-62
2022/12/15 06:51:45;;;;;;;5.10;3.10;;;;;;;;;;5064196;28;20545;-61
2022/12/15 06:54:14;;;;;;;4.95;2.38;;;;;;;;;;5032238;28;20508;-62
2022/12/15 06:56:44;;;;;;;5.95;2.67;;;;;;;;;;5030887;28;20050;-63
2022/12/15 06:59:17;;;;;;;5.60;3.13;;;;;;;;;;5032991;28;20045;-62
2022/12/15 07:01:47;;;;;;;5.70;2.65;;;;;;;;;;5033021;28;20030;-61
2022/12/15 07:04:17;;;;;;;6.68;2.72;;;;;;;;;;5033204;28;20046;-61
2022/12/15 07:06:46;;;;;;;8.38;2.97;;;;;;;;;;5033476;28;20512;-62
2022/12/15 07:09:16;;;;;;;6.45;2.75;;;;;;;;;;5033348;28;20465;-61
2022/12/15 07:11:49;;;;;;;9.27;2.90;;;;;;;;;;5064141;28;20060;-63
2022/12/15 07:14:19;;;;;;;6.35;2.83;;;;;;;;;;5062455;28;20053;-61
2022/12/15 07:16:48;;;;;;;5.53;2.55;;;;;;;;;;5032833;28;20046;-62
2022/12/15 07:19:18;;;;;;;5.53;3.47;;;;;;;;;;4996796;28;20054;-62
2022/12/15 07:21:47;;;;;;;5.25;3.15;;;;;;;;;;5030420;28;20076;-62
2022/12/15 07:24:17;;;;;;;7.40;2.85;;;;;;;;;;5030209;28;20053;-62
2022/12/15 07:26:47;;;;;;;4.03;2.60;;;;;;;;;;5013744;28;20065;-62
2022/12/15 07:29:16;;;;;;;7.45;2.83;;;;;;;;;;5029994;28;20060;-62
2022/12/15 07:31:51;;;;;;;5.38;2.80;;;;;;;;;;4997250;28;20072;-62
2022/12/15 07:34:21;;;;;;;5.47;2.20;;;;;;;;;;5013447;28;20421;-61
2022/12/15 07:36:51;;;;;;;6.43;2.83;;;;;;;;;;4981072;28;20049;-61
2022/12/15 07:39:20;;;;;;;5.43;2.95;;;;;;;;;;5029851;28;20076;-62
2022/12/15 07:41:50;;;;;;;7.32;3.65;;;;;;;;;;5030114;28;20081;-62
2022/12/15 07:44:20;;;;;;;6.75;3.38;;;;;;;;;;5046127;28;20065;-62
2022/12/15 07:46:51;;;;;;;9.63;3.47;;;;;;;;;;5029974;28;20045;-63
2022/12/15 07:49:20;;;;;;;12.18;3.53;;;;;;;;;;5013643;28;20084;-62
2022/12/15 07:51:50;;;;;;;12.18;3.35;;;;;;;;;;5029751;28;20070;-63
2022/12/15 07:54:20;;;;;;;8.98;3.40;;;;;;;;;;4997044;28;20493;-61
2022/12/15 07:56:49;;;;;;;7.15;3.42;;;;;;;;;;5030601;28;20064;-61
2022/12/15 07:59:19;;;;;;;7.90;3.55;;;;;;;;;;5031918;28;20525;-61
2022/12/15 08:01:49;;;;;;;5.90;2.70;;;;;;;;;;5046465;28;20058;-62
2022/12/15 08:04:19;;;;;;;8.05;3.50;;;;;;;;;;5030945;28;20052;-62
2022/12/15 08:06:50;;;;;;;7.68;3.40;;;;;;;;;;5029720;28;20532;-61
2022/12/15 08:09:20;;;;;;;6.90;3.10;;;;;;;;;;5045275;28;20516;-62
2022/12/15 08:11:49;;;;;;;8.20;3.17;;;;;;;;;;5032286;28;20052;-61
2022/12/15 08:14:19;;;;;;;7.75;3.47;;;;;;;;;;5062143;28;20063;-61
2022/12/15 08:16:49;;;;;;;6.78;3.30;;;;;;;;;;5031642;28;20050;-61
2022/12/15 08:19:19;;;;;;;9.18;3.10;;;;;;;;;;5031444;28;20054;-62
2022/12/15 08:21:48;;;;;;;11.00;4.25;;;;;;;;;;5031643;28;20045;-61
2022/12/15 08:24:18;;;;;;;8.60;3.75;;;;;;;;;;5029527;28;20085;-63
2022/12/15 08:26:48;;;;;;;8.40;3.33;;;;;;;;;;5031755;28;20060;-61
2022/12/15 08:29:18;;;;;;;6.03;3.03;;;;;;;;;;5030701;28;20049;-61
2022/12/15 08:32:08;;;;;;;5.20;2.80;;;;;;;;;;5031570;28;20045;-61
2022/12/15 08:34:38;;;;;;;9.23;3.40;;;;;;;;;;5048425;28;20614;-63
2022/12/15 08:37:08;;;;;;;12.40;3.53;;;;;;;;;;4999317;28;20818;-61
2022/12/15 08:39:38;;;;;;;6.07;2.90;;;;;;;;;;5048799;28;20732;-61
2022/12/15 08:42:07;;;;;;;10.57;3.08;;;;;;;;;;5048562;28;20548;-62
2022/12/15 08:44:37;;;;;;;7.53;2.80;;;;;;;;;;5048653;28;20056;-64
2022/12/15 08:47:08;;;;;;;6.97;2.90;;;;;;;;;;5031767;28;20044;-62
2022/12/15 08:49:37;;;;;;;6.00;2.90;;;;;;;;;;5065287;28;20060;-61
2022/12/15 08:52:07;;;;;;;9.70;2.50;;;;;;;;;;5048636;28;20404;-62
2022/12/15 08:54:37;;;;;;;5.20;2.63;;;;;;;;;;5048637;28;20052;-61
2022/12/15 08:57:06;;;;;;;7.70;2.90;;;;;;;;;;5048060;28;20055;-62
2022/12/15 08:59:36;;;;;;;9.80;2.63;;;;;;;;;;5048842;28;20065;-62
2022/12/15 09:02:06;;;;;;;4.88;2.58;;;;;;;;;;5048238;28;20049;-62
2022/12/15 09:04:36;;;;;;;7.18;3.03;;;;;;;;;;5031789;28;20064;-63
2022/12/15 09:07:07;;;;;;;8.68;2.80;;;;;;;;;;5028820;28;20060;-62
2022/12/15 09:09:37;;;;;;;7.78;3.13;;;;;;;;;;5028680;28;20057;-63
2022/12/15 09:12:11;;;;;;;5.93;2.75;;;;;;;;;;5030868;28;20121;-62
2022/12/15 09:14:42;;;;;;;5.95;2.67;;;;;;;;;;4979383;28;20057;-62
2022/12/15 09:17:13;;;;;;;5.47;2.65;;;;;;;;;;5027989;28;20102;-62
2022/12/15 09:19:43;;;;;;;10.93;2.90;;;;;;;;;;5027940;28;20057;-61
2022/12/15 09:22:13;;;;;;;6.72;2.55;;;;;;;;;;5011739;28;20583;-64
2022/12/15 09:24:42;;;;;;;5.35;2.67;;;;;;;;;;5028115;28;20490;-61
2022/12/15 09:27:12;;;;;;;4.15;2.25;;;;;;;;;;5027940;28;20057;-61
2022/12/15 09:29:42;;;;;;;6.68;2.70;;;;;;;;;;5028059;28;20505;-62
2022/12/15 09:32:12;;;;;;;5.28;2.88;;;;;;;;;;5027965;28;20533;-61
2022/12/15 09:34:43;;;;;;;6.50;2.72;;;;;;;;;;5028158;28;20045;-62
2022/12/15 09:37:12;;;;;;;4.25;2.30;;;;;;;;;;5027863;28;20061;-61
2022/12/15 09:39:42;;;;;;;5.95;2.38;;;;;;;;;;5028069;28;20065;-61
2022/12/15 09:42:29;;;;;;;6.65;2.40;;;;;;;;;;5011200;28;20060;-62
2022/12/15 09:45:12;;;;;;;5.65;3.22;;;;;;;;;;4948954;28;20069;-61
2022/12/15 09:48:06;;;;;;;8.13;2.58;;;;;;;;;;4963803;28;20052;-61
2022/12/15 09:50:41;;;;;;;4.50;2.05;;;;;;;;;;4978822;28;20053;-61
2022/12/15 09:53:14;;;;;;;6.47;2.67;;;;;;;;;;5044476;28;20052;-62
2022/12/15 09:56:12;;;;;;;6.00;2.50;;;;;;;;;;5047398;28;20488;-62
2022/12/15 09:59:00;;;;;;;8.23;2.17;;;;;;;;;;4975274;28;20050;-62
2022/12/15 10:02:16;;;;;;;4.95;2.45;;;;;;;;;;4991869;28;20053;-61
2022/12/15 10:04:55;;;;;;;;;;;;;;;;;;4931131;29;20063;-63
2022/12/15 10:07:42;;;;;;;5.90;2.42;;;;;;;;;;4930249;29;19927;-62
2022/12/15 10:10:23;;;;;;;6.55;2.47;;;;;;;;;;4930457;29;20055;-62
2022/12/15 10:12:59;;;;;;;5.53;1.95;;;;;;;;;;4914050;29;20056;-62
2022/12/15 10:15:39;;;;;;;8.85;2.60;;;;;;;;;;4882937;29;20063;-63
2022/12/15 10:18:22;;;;;;;9.52;2.75;;;;;;;;;;4930264;29;20055;-62
2022/12/15 10:20:54;;;;;;;4.90;1.80;;;;;;;;;;4914636;29;20397;-62
2022/12/15 10:23:25;;;;;;;5.63;1.70;;;;;;;;;;4930527;29;20438;-62
2022/12/15 10:26:12;;;;;;;7.32;2.60;;;;;;;;;;4930550;29;20064;-62
2022/12/15 10:29:02;;;;;;;4.07;1.92;;;;;;;;;;4930138;29;20523;-62
2022/12/15 10:31:56;;;;;;;5.13;2.33;;;;;;;;;;4955235;28;20066;-63
2022/12/15 10:34:33;;;;;;;6.22;2.15;;;;;;;;;;4978014;28;20442;-62
2022/12/15 10:37:03;;;;;;;5.97;2.58;;;;;;;;;;4937754;29;20527;-62
2022/12/15 10:39:44;;;;;;;6.45;2.05;;;;;;;;;;4940262;28;20066;-62
2022/12/15 10:42:20;;;;;;;4.22;2.28;;;;;;;;;;5015191;28;20064;-62
2022/12/15 10:44:52;;;;;;;5.60;1.77;;;;;;;;;;5031239;28;20410;-62
2022/12/15 10:47:27;;;;;;;4.57;1.63;;;;;;;;;;5031030;28;20452;-62
2022/12/15 10:50:17;;;;;;;6.88;1.98;;;;;;;;;;5030123;28;20057;-62
2022/12/15 10:52:53;;;;;;;4.38;2.10;;;;;;;;;;5028917;28;20173;-62
2022/12/15 10:55:39;;;;;;;5.95;2.47;;;;;;;;;;5030218;28;20061;-62
2022/12/15 10:58:22;;;;;;;4.28;2.00;;;;;;;;;;5069375;28;20064;-62
2022/12/15 11:01:13;;;;;;;4.95;1.70;;;;;;;;;;5036722;28;20057;-62
2022/12/15 11:03:45;;;;;;;6.50;2.17;;;;;;;;;;5051780;28;20416;-62
2022/12/15 11:06:29;;;;;;;6.30;2.53;;;;;;;;;;5036260;28;20582;-62
2022/12/15 11:09:20;;;;;;;6.13;1.85;;;;;;;;;;5069881;28;20506;-62
2022/12/15 11:14:51;;;;;;;4.95;2.08;;;;;;;;;;5070418;28;20053;-62
2022/12/15 11:17:22;;;;;;;4.80;2.72;;;;;;;;;;5070226;28;20508;-62
2022/12/15 11:20:01;;;;;;;6.05;2.10;;;;;;;;;;5036618;28;20053;-62
2022/12/15 11:22:37;;;;;;;10.07;2.53;;;;;;;;;;5070436;28;20060;-62
2022/12/15 11:25:16;;;;;;;5.03;2.35;;;;;;;;;;5036553;28;20045;-62
2022/12/15 11:27:48;;;;;;;6.32;2.50;;;;;;;;;;5070268;28;20056;-62
2022/12/15 11:30:23;;;;;;;4.03;2.30;;;;;;;;;;5020015;28;20067;-63
2022/12/15 11:32:58;;;;;;;5.25;2.30;;;;;;;;;;5049376;28;20064;-63
2022/12/15 11:35:33;;;;;;;5.28;1.55;;;;;;;;;;5043246;28;22081;-63
2022/12/15 11:38:19;;;;;;;4.90;1.95;;;;;;;;;;5010305;28;20057;-63
2022/12/15 11:40:50;;;;;;;6.80;2.70;;;;;;;;;;5014435;28;20050;-63
2022/12/15 11:44:03;;;;;;;4.63;2.40;;;;;;;;;;4977206;28;20053;-63
2022/12/15 11:47:27;;;;;;;5.47;2.20;;;;;;;;;;5039940;28;20528;-62
2022/12/15 11:50:05;;;;;;;6.30;2.30;;;;;;;;;;5010182;28;20046;-62
2022/12/15 11:53:04;;;;;;;3.90;1.98;;;;;;;;;;5022408;28;20054;-63
2022/12/15 11:55:52;;;;;;;5.00;2.22;;;;;;;;;;4986180;28;20768;-62
2022/12/15 11:58:41;;;;;;;8.23;2.55;;;;;;;;;;5028591;28;20068;-62
2022/12/15 12:01:31;;;;;;;4.22;1.40;;;;;;;;;;5011128;28;20488;-63
2022/12/15 12:04:22;;;;;;;;;;;;;;;;;;5040374;28;20464;-63
2022/12/15 12:07:03;;;;;;;3.53;2.22;;;;;;;;;;5050789;28;19920;-63
2022/12/15 12:09:46;;;;;;;6.22;2.10;;;;;;;;;;5051793;28;20049;-63
2022/12/15 12:12:18;;;;;;;4.22;2.20;;;;;;;;;;5013998;28;20048;-62
2022/12/15 12:15:14;;;;;;;8.98;2.28;;;;;;;;;;5051911;28;20516;-63
2022/12/15 12:17:57;;;;;;;5.05;2.55;;;;;;;;;;5035474;28;20052;-63
2022/12/15 12:20:46;;;;;;;6.80;2.42;;;;;;;;;;5069133;28;20484;-63
2022/12/15 12:23:54;;;;;;;5.90;1.95;;;;;;;;;;5069023;28;20056;-64
2022/12/15 12:26:45;;;;;;;4.18;2.05;;;;;;;;;;4973734;28;20116;-64
2022/12/15 12:29:20;;;;;;;4.03;1.95;;;;;;;;;;4990104;28;20525;-63
2022/12/15 12:32:18;;;;;;;5.60;2.10;;;;;;;;;;4973486;28;20503;-63
2022/12/15 12:35:06;;;;;;;6.03;2.40;;;;;;;;;;4989525;28;20050;-64
2022/12/15 12:38:05;;;;;;;4.78;1.92;;;;;;;;;;4989534;28;20054;-63
2022/12/15 12:41:12;;;;;;;5.95;2.15;;;;;;;;;;4989655;28;20053;-64
2022/12/15 12:43:48;;;;;;;4.13;2.13;;;;;;;;;;4973110;28;20059;-64
2022/12/15 12:46:32;;;;;;;4.53;2.47;;;;;;;;;;4889120;29;20070;-63
2022/12/15 12:49:11;;;;;;;3.80;1.70;;;;;;;;;;4934619;29;20067;-63
2022/12/15 12:51:50;;;;;;;3.35;1.67;;;;;;;;;;4950637;29;20062;-64
2022/12/15 12:54:35;;;;;;;3.90;1.95;;;;;;;;;;4918117;29;20051;-63
2022/12/15 12:57:35;;;;;;;4.82;1.73;;;;;;;;;;4950087;29;20067;-63
2022/12/15 13:00:19;;;;;;;4.30;1.90;;;;;;;;;;4912382;29;20060;-63
2022/12/15 13:02:52;;;;;;;4.13;1.92;;;;;;;;;;4934037;28;20119;-62
2022/12/15 13:05:32;;;;;;;4.25;1.60;;;;;;;;;;4989122;28;20206;-63
2022/12/15 13:08:05;;;;;;;4.30;1.77;;;;;;;;;;4989241;28;20057;-64
2022/12/15 13:10:37;;;;;;;6.38;1.80;;;;;;;;;;4972219;28;20065;-64
2022/12/15 13:13:28;;;;;;;6.28;2.25;;;;;;;;;;4940879;28;20577;-63
2022/12/15 13:16:31;;;;;;;4.53;1.65;;;;;;;;;;4988847;28;20054;-63
2022/12/15 13:19:08;;;;;;;3.22;1.98;;;;;;;;;;4911677;29;20137;-63
2022/12/15 13:21:41;;;;;;;2.70;1.50;;;;;;;;;;4843593;29;20053;-63
2022/12/15 13:24:36;;;;;;;5.20;2.00;;;;;;;;;;4877220;29;20056;-63
2022/12/15 13:27:16;;;;;;;3.20;1.83;;;;;;;;;;4861780;29;20052;-63
2022/12/15 13:30:02;;;;;;;7.50;2.13;;;;;;;;;;4877570;29;20524;-63
2022/12/15 13:32:45;;;;;;;5.25;1.67;;;;;;;;;;4893397;29;20083;-63
2022/12/15 13:35:33;;;;;;;3.33;1.85;;;;;;;;;;4846324;29;20057;-62
2022/12/15 13:38:06;;;;;;;8.23;3.45;;;;;;;;;;4893207;29;20071;-63
2022/12/15 13:40:37;;;;;;;6.57;2.30;;;;;;;;;;4893292;29;20394;-63
2022/12/15 13:43:42;;;;;;;8.13;4.00;;;;;;;;;;4893469;29;20207;-63
2022/12/15 13:46:21;;;;;;;6.78;2.90;;;;;;;;;;4892859;29;20537;-63
2022/12/15 13:49:05;;;;;;;3.30;1.70;;;;;;;;;;4892895;29;20053;-63
2022/12/15 13:51:44;;;;;;;3.97;1.70;;;;;;;;;;4893054;29;20060;-63
2022/12/15 13:54:25;;;;;;;4.15;1.95;;;;;;;;;;4861301;28;20540;-63
2022/12/15 13:57:08;;;;;;;4.53;1.67;;;;;;;;;;4988578;28;20058;-63
2022/12/15 13:59:43;;;;;;;3.20;1.25;;;;;;;;;;5000885;28;20418;-63
2022/12/15 14:02:34;;;;;;;5.18;1.70;;;;;;;;;;5047905;28;20080;-63
2022/12/15 14:05:21;;;;;;;3.95;1.80;;;;;;;;;;5033975;28;20057;-63
2022/12/15 14:07:56;;;;;;;4.78;2.00;;;;;;;;;;5052199;28;20059;-63
2022/12/15 14:10:35;;;;;;;4.57;2.08;;;;;;;;;;5071698;28;20045;-64
2022/12/15 14:13:12;;;;;;;4.68;2.25;;;;;;;;;;5071832;28;20053;-63
2022/12/15 14:16:03;;;;;;;4.47;1.95;;;;;;;;;;5038091;28;20484;-64
2022/12/15 14:18:36;;;;;;;4.30;1.70;;;;;;;;;;5054445;28;20052;-64
2022/12/15 14:21:29;;;;;;;7.82;2.17;;;;;;;;;;5071622;28;20535;-64
2022/12/15 14:23:59;;;;;;;5.75;2.25;;;;;;;;;;5071388;28;20045;-64
2022/12/15 14:26:50;;;;;;;4.20;2.28;;;;;;;;;;5059913;28;20075;-64
2022/12/15 14:29:20;;;;;;;3.15;1.60;;;;;;;;;;5068416;28;20501;-64
2022/12/15 14:31:57;;;;;;;4.20;1.98;;;;;;;;;;5053641;28;20041;-64
2022/12/15 14:34:37;;;;;;;3.97;1.60;;;;;;;;;;5002862;28;20064;-64
2022/12/15 14:37:13;;;;;;;4.82;1.67;;;;;;;;;;5053505;28;20041;-64
2022/12/15 14:39:47;;;;;;;2.90;1.55;;;;;;;;;;5035016;28;20064;-64
2022/12/15 14:42:38;;;;;;;3.42;1.40;;;;;;;;;;5051448;28;20386;-63
2022/12/15 14:45:23;;;;;;;2.30;1.23;;;;;;;;;;5053405;28;20417;-64
2022/12/15 14:48:00;;;;;;;3.83;1.95;;;;;;;;;;5034912;28;20052;-63
2022/12/15 14:50:50;;;;;;;4.40;1.88;;;;;;;;;;5053613;28;20052;-63
2022/12/15 14:53:21;;;;;;;5.13;2.00;;;;;;;;;;5034381;28;20060;-64
2022/12/15 14:55:51;;;;;;;;;;;;;;;;;;5054087;28;20041;-64
2022/12/15 14:58:33;;;;;;;2.90;1.17;;;;;;;;;;5053258;28;20304;-64
2022/12/15 15:01:23;;;;;;;2.35;1.60;;;;;;;;;;5053211;28;20071;-64
2022/12/15 15:04:04;;;;;;;3.50;1.40;;;;;;;;;;5053202;28;20401;-64
2022/12/15 15:06:37;;;;;;;2.80;1.42;;;;;;;;;;5053420;28;20041;-64
2022/12/15 15:09:16;;;;;;;5.65;1.50;;;;;;;;;;5053050;28;20037;-64
2022/12/15 15:11:50;;;;;;;4.22;1.48;;;;;;;;;;5053092;28;20060;-64
2022/12/15 15:14:26;;;;;;;4.18;1.13;;;;;;;;;;5034374;28;20504;-64
2022/12/15 15:17:13;;;;;;;4.43;1.40;;;;;;;;;;5050674;28;20056;-64
2022/12/15 15:19:56;;;;;;;2.15;1.42;;;;;;;;;;5033417;28;20068;-63
2022/12/15 15:22:44;;;;;;;3.65;1.80;;;;;;;;;;5070225;28;20053;-63
2022/12/15 15:25:32;;;;;;;5.50;2.65;;;;;;;;;;5036348;28;21245;-64
2022/12/15 15:28:19;;;;;;;4.30;1.67;;;;;;;;;;5069873;28;20618;-64
2022/12/15 15:30:53;;;;;;;1.88;1.40;;;;;;;;;;5037124;28;20764;-64
2022/12/15 15:33:25;;;;;;;3.10;1.58;;;;;;;;;;5012850;28;20056;-65
2022/12/15 15:35:58;;;;;;;3.08;1.75;;;;;;;;;;5029693;28;20050;-65
2022/12/15 15:38:33;;;;;;;2.95;1.63;;;;;;;;;;5013913;28;20061;-65
2022/12/15 15:41:32;;;;;;;4.05;1.60;;;;;;;;;;5037557;28;20066;-65
2022/12/15 15:44:11;;;;;;;3.67;1.40;;;;;;;;;;5034251;28;20050;-65
2022/12/15 15:46:51;;;;;;;4.82;1.50;;;;;;;;;;5013810;28;20061;-65
2022/12/15 15:49:23;;;;;;;5.93;2.00;;;;;;;;;;5029501;28;20402;-65
2022/12/15 15:51:55;;;;;;;1.98;1.35;;;;;;;;;;4996922;28;20072;-65
2022/12/15 15:54:33;;;;;;;2.20;0.90;;;;;;;;;;4981791;28;20394;-65
2022/12/15 15:57:04;;;;;;;3.35;1.40;;;;;;;;;;5029616;28;20049;-64
2022/12/15 15:59:33;;;;;;;2.05;0.93;;;;;;;;;;5023851;28;20413;-64
2022/12/15 16:02:03;;;;;;;5.95;1.95;;;;;;;;;;4977959;28;20065;-64
2022/12/15 16:04:35;;;;;;;2.67;1.50;;;;;;;;;;5008666;28;20054;-65
2022/12/15 16:07:24;;;;;;;4.13;1.95;;;;;;;;;;5009638;28;20098;-64
2022/12/15 16:09:54;;;;;;;2.65;1.30;;;;;;;;;;5010458;28;20054;-64
2022/12/15 16:12:28;;;;;;;2.78;1.50;;;;;;;;;;4996432;28;20521;-64
2022/12/15 16:14:58;;;;;;;5.50;1.60;;;;;;;;;;5029524;28;20064;-64
2022/12/15 16:17:28;;;;;;;5.15;1.52;;;;;;;;;;4996284;28;20058;-64
2022/12/15 16:19:58;;;;;;;3.13;1.13;;;;;;;;;;5029354;28;20445;-64
2022/12/15 16:22:28;;;;;;;2.67;1.60;;;;;;;;;;5029245;28;20052;-65
2022/12/15 16:24:58;;;;;;;4.20;2.55;;;;;;;;;;5009425;28;20081;-64
2022/12/15 16:27:28;;;;;;;3.95;1.40;;;;;;;;;;4974082;28;20533;-64
2022/12/15 16:29:57;;;;;;;1.75;1.30;;;;;;;;;;5012450;28;20141;-63
2022/12/15 16:32:27;;;;;;;2.78;1.20;;;;;;;;;;4996078;28;20050;-64
2022/12/15 16:34:57;;;;;;;3.50;1.50;;;;;;;;;;4979651;28;20072;-64
2022/12/15 16:37:27;;;;;;;4.80;1.45;;;;;;;;;;5028836;28;20061;-64
2022/12/15 16:40:17;;;;;;;3.72;1.60;;;;;;;;;;5048310;28;20052;-64
2022/12/15 16:42:52;;;;;;;3.70;1.75;;;;;;;;;;5032005;28;20053;-64
2022/12/15 16:45:24;;;;;;;2.40;0.95;;;;;;;;;;5001541;28;20440;-64
2022/12/15 16:47:55;;;;;;;3.13;1.42;;;;;;;;;;5015116;28;20052;-64
2022/12/15 16:50:31;;;;;;;3.15;1.27;;;;;;;;;;5048681;28;20057;-64
2022/12/15 16:53:03;;;;;;;2.75;1.48;;;;;;;;;;5048515;28;20071;-63
2022/12/15 16:55:34;;;;;;;3.35;1.63;;;;;;;;;;5054113;28;20512;-64
2022/12/15 16:58:14;;;;;;;2.75;1.85;;;;;;;;;;5034810;28;20095;-64
2022/12/15 17:00:44;;;;;;;4.07;1.45;;;;;;;;;;5018793;28;20315;-64
2022/12/15 17:03:17;;;;;;;4.40;1.40;;;;;;;;;;5034693;28;20044;-64
2022/12/15 17:05:50;;;;;;;2.88;1.60;;;;;;;;;;5068557;28;20052;-64
2022/12/15 17:08:25;;;;;;;7.35;3.55;;;;;;;;;;5051559;28;20393;-65
2022/12/15 17:10:55;;;;;;;12.38;6.82;;;;;;;;;;5068645;28;20063;-65
2022/12/15 17:13:37;;;;;;;4.78;2.25;;;;;;;;;;5068309;28;20090;-64
2022/12/15 17:16:14;;;;;;;6.65;1.85;;;;;;;;;;4989597;28;20047;-65
2022/12/15 17:18:44;;;;;;;2.95;1.50;;;;;;;;;;5033869;28;20061;-64
2022/12/15 17:21:17;;;;;;;2.17;1.25;;;;;;;;;;5030721;28;20045;-64
2022/12/15 17:23:51;;;;;;;6.90;2.92;;;;;;;;;;4996150;28;20057;-64
2022/12/15 17:26:27;;;;;;;4.38;1.60;;;;;;;;;;5030753;28;20253;-64
2022/12/15 17:29:05;;;;;;;4.35;2.20;;;;;;;;;;5030783;28;20048;-64
2022/12/15 17:31:36;;;;;;;4.85;2.45;;;;;;;;;;5030828;28;20045;-64
2022/12/15 17:34:26;;;;;;;4.68;1.40;;;;;;;;;;5030921;28;20389;-64
2022/12/15 17:36:59;;;;;;;5.35;1.55;;;;;;;;;;5030231;28;20048;-64
2022/12/15 17:39:30;;;;;;;3.22;1.50;;;;;;;;;;5030523;28;20042;-64
2022/12/15 17:42:01;;;;;;;3.05;1.92;;;;;;;;;;5050602;28;20060;-64
2022/12/15 17:44:34;;;;;;;4.30;1.50;;;;;;;;;;5054910;28;20060;-64
2022/12/15 17:47:07;;;;;;;4.07;1.75;;;;;;;;;;5054465;28;20060;-64
2022/12/15 17:49:37;;;;;;;6.07;2.78;;;;;;;;;;5005208;28;20059;-64
2022/12/15 17:52:33;;;;;;;7.25;3.53;;;;;;;;;;5021257;28;20056;-64
2022/12/15 17:55:14;;;;;;;4.05;2.22;;;;;;;;;;5054412;28;20121;-64
2022/12/15 17:57:45;;;;;;;6.00;2.33;;;;;;;;;;5021226;28;20052;-64
2022/12/15 18:00:25;;;;;;;2.47;1.80;;;;;;;;;;5054164;28;20072;-64
2022/12/15 18:02:56;;;;;;;3.58;1.80;;;;;;;;;;5054598;28;20056;-64